createdAt,value
2022-08-11T00:01:17.870Z,54.90
2022-08-11T00:03:51.733Z,54.90
2022-08-11T00:06:27.778Z,54.90
2022-08-11T00:08:57.513Z,55.00
2022-08-11T00:11:37.235Z,55.00
2022-08-11T00:14:15.331Z,55.10
2022-08-11T00:16:55.235Z,55.10
2022-08-11T00:20:15.099Z,55.20
2022-08-11T00:22:23.267Z,55.30
2022-08-11T00:24:55.109Z,55.50
2022-08-11T00:27:38.212Z,55.40
2022-08-11T00:30:11.684Z,55.70
2022-08-11T00:32:44.683Z,55.50
2022-08-11T00:35:56.229Z,55.60
2022-08-11T00:38:08.215Z,55.70
2022-08-11T00:40:45.219Z,55.80
2022-08-11T00:43:24.988Z,56.10
2022-08-11T00:46:18.467Z,56.10
2022-08-11T00:49:08.899Z,56.50
2022-08-11T00:52:05.832Z,56.40
2022-08-11T00:55:40.906Z,56.60
2022-08-11T00:59:35.523Z,57.00
2022-08-11T01:02:19.284Z,57.20
2022-08-11T01:05:51.525Z,56.80
2022-08-11T01:09:20.994Z,57.40
2022-08-11T01:12:29.317Z,57.10
2022-08-11T01:15:57.013Z,56.90
2022-08-11T01:19:01.041Z,57.80
2022-08-11T01:22:37.109Z,57.80
2022-08-11T01:26:16.390Z,57.60
2022-08-11T01:29:36.093Z,57.80
2022-08-11T01:33:00.846Z,57.60
2022-08-11T01:36:29.457Z,57.40
2022-08-11T01:39:44.318Z,57.60
2022-08-11T01:43:24.937Z,57.80
2022-08-11T01:46:02.502Z,58.10
2022-08-11T01:48:44.974Z,57.80
2022-08-11T01:51:35.956Z,57.80
2022-08-11T01:54:13.632Z,58.10
2022-08-11T01:57:03.597Z,58.20
2022-08-11T01:59:38.473Z,58.50
2022-08-11T02:02:49.993Z,58.30
2022-08-11T02:06:00.309Z,58.80
2022-08-11T02:08:50.940Z,58.90
2022-08-11T02:11:35.871Z,59.40
2022-08-11T02:14:22.291Z,58.80
2022-08-11T02:17:06.918Z,58.90
2022-08-11T02:20:07.660Z,58.90
2022-08-11T02:23:11.412Z,59.10
2022-08-11T02:25:52.306Z,59.20
2022-08-11T02:28:25.803Z,59.60
2022-08-11T02:32:11.000Z,59.70
2022-08-11T02:34:22.736Z,60.00
2022-08-11T02:37:01.916Z,60.20
2022-08-11T02:39:43.543Z,61.30
2022-08-11T02:42:31.671Z,60.60
2022-08-11T02:45:32.091Z,60.80
2022-08-11T02:48:32.468Z,60.80
2022-08-11T02:51:21.941Z,60.70
2022-08-11T02:54:04.088Z,60.80
2022-08-11T02:56:44.813Z,61.60
2022-08-11T02:59:46.066Z,61.10
2022-08-11T03:02:40.546Z,61.30
2022-08-11T03:05:25.151Z,61.40
2022-08-11T03:08:12.715Z,61.50
2022-08-11T03:11:09.236Z,61.80
2022-08-11T03:14:05.029Z,61.50
2022-08-11T03:16:50.653Z,61.70
2022-08-11T03:19:29.485Z,61.70
2022-08-11T03:22:22.036Z,61.80
2022-08-11T03:25:04.196Z,62.20
2022-08-11T03:27:47.215Z,62.40
2022-08-11T03:30:20.277Z,62.40
2022-08-11T03:33:24.369Z,62.60
2022-08-11T03:36:11.644Z,62.90
2022-08-11T03:39:02.043Z,63.20
2022-08-11T03:42:01.433Z,63.10
2022-08-11T03:45:08.422Z,63.20
2022-08-11T03:48:03.406Z,64.10
2022-08-11T03:50:58.525Z,63.60
2022-08-11T03:54:04.529Z,64.10
2022-08-11T03:57:39.562Z,64.20
2022-08-11T04:01:08.897Z,65.00
2022-08-11T04:04:51.338Z,65.50
2022-08-11T04:08:47.797Z,64.70
2022-08-11T04:12:11.610Z,66.10
2022-08-11T04:15:26.411Z,65.70
2022-08-11T04:18:50.400Z,64.70
2022-08-11T04:22:08.556Z,65.60
2022-08-11T04:25:22.921Z,65.50
2022-08-11T04:28:43.128Z,65.30
2022-08-11T04:31:50.385Z,65.60
2022-08-11T04:35:09.441Z,65.60
2022-08-11T04:38:11.889Z,66.20
2022-08-11T04:41:15.022Z,65.50
2022-08-11T04:44:39.454Z,66.10
2022-08-11T04:48:03.654Z,67.00
2022-08-11T04:51:17.157Z,66.10
2022-08-11T04:54:19.157Z,66.00
2022-08-11T04:57:10.377Z,66.20
2022-08-11T05:00:28.522Z,66.50
2022-08-11T05:03:38.484Z,67.70
2022-08-11T05:06:35.193Z,67.20
2022-08-11T05:09:23.516Z,67.30
2022-08-11T05:12:30.026Z,67.20
2022-08-11T05:15:18.231Z,67.30
2022-08-11T05:18:12.395Z,67.20
2022-08-11T05:21:07.241Z,67.40
2022-08-11T05:24:00.502Z,67.50
2022-08-11T05:26:49.900Z,67.70
2022-08-11T05:30:01.449Z,67.80
2022-08-11T05:32:59.509Z,68.30
2022-08-11T05:36:02.576Z,67.80
2022-08-11T05:38:53.210Z,67.90
2022-08-11T05:41:43.327Z,67.80
2022-08-11T05:44:37.196Z,68.00
2022-08-11T05:47:25.465Z,67.90
2022-08-11T05:50:13.565Z,68.20
2022-08-11T05:53:08.858Z,68.30
2022-08-11T05:56:03.074Z,68.50
2022-08-11T05:58:41.320Z,68.70
2022-08-11T06:01:15.528Z,68.80
2022-08-11T06:04:08.830Z,68.90
2022-08-11T06:06:45.421Z,69.10
2022-08-11T06:09:15.648Z,69.40
2022-08-11T06:11:45.220Z,70.00
2022-08-11T06:14:15.682Z,69.60
2022-08-11T06:16:47.891Z,69.30
2022-08-11T06:19:18.445Z,69.20
2022-08-11T06:21:48.763Z,69.40
2022-08-11T06:24:17.768Z,69.20
2022-08-11T06:29:55.089Z,69.40
2022-08-11T06:32:27.845Z,69.50
2022-08-11T06:35:22.837Z,69.20
2022-08-11T06:38:08.778Z,69.20
2022-08-11T06:41:09.513Z,69.30
2022-08-11T06:43:55.198Z,69.20
2022-08-11T06:46:30.174Z,68.90
2022-08-11T06:49:02.317Z,68.80
2022-08-11T06:51:34.221Z,69.10
2022-08-11T06:54:05.607Z,68.80
2022-08-11T06:57:26.321Z,68.20
2022-08-11T07:00:03.464Z,68.20
2022-08-11T07:02:38.084Z,67.60
2022-08-11T07:05:16.397Z,67.40
2022-08-11T07:09:06.440Z,67.30
2022-08-11T07:12:30.068Z,66.60
2022-08-11T07:15:17.264Z,66.30
2022-08-11T07:18:11.023Z,66.10
2022-08-11T07:21:02.085Z,66.00
2022-08-11T07:23:54.528Z,65.70
2022-08-11T07:26:45.852Z,65.40
2022-08-11T07:29:16.553Z,65.40
2022-08-11T07:31:53.515Z,65.40
2022-08-11T07:34:27.846Z,65.10
2022-08-11T07:36:58.897Z,64.70
2022-08-11T07:39:33.715Z,64.60
2022-08-11T07:42:08.945Z,64.30
2022-08-11T07:44:58.634Z,64.00
2022-08-11T07:47:44.918Z,64.40
2022-08-11T07:50:32.614Z,64.20
2022-08-11T07:53:02.315Z,63.90
2022-08-11T07:55:51.889Z,64.00
2022-08-11T07:58:45.405Z,63.80
2022-08-11T08:01:40.189Z,63.40
2022-08-11T08:04:29.908Z,63.20
2022-08-11T08:07:16.815Z,63.00
2022-08-11T08:10:04.370Z,62.80
2022-08-11T08:12:53.357Z,62.40
2022-08-11T08:15:42.423Z,62.30
2022-08-11T08:18:25.493Z,61.80
2022-08-11T08:21:11.808Z,61.80
2022-08-11T08:23:43.018Z,61.50
2022-08-11T08:26:28.258Z,61.50
2022-08-11T08:29:17.307Z,61.10
2022-08-11T08:31:47.043Z,61.30
2022-08-11T08:34:18.586Z,60.70
2022-08-11T08:36:50.458Z,60.00
2022-08-11T08:39:21.855Z,59.70
2022-08-11T08:41:55.344Z,59.90
2022-08-11T08:44:38.380Z,59.90
2022-08-11T08:47:13.266Z,59.70
2022-08-11T08:49:49.305Z,59.60
2022-08-11T08:52:30.642Z,59.40
2022-08-11T08:55:06.682Z,59.00
2022-08-11T08:57:38.958Z,58.70
2022-08-11T09:00:17.919Z,58.50
2022-08-11T09:02:50.454Z,58.30
2022-08-11T09:05:21.291Z,58.20
2022-08-11T09:07:57.676Z,58.20
2022-08-11T09:10:30.278Z,57.60
2022-08-11T09:13:04.314Z,57.50
2022-08-11T09:15:36.049Z,57.50
2022-08-11T09:18:09.243Z,57.40
2022-08-11T09:20:40.010Z,57.10
2022-08-11T09:26:35.028Z,57.00
2022-08-11T09:29:05.256Z,56.90
2022-08-11T09:31:39.719Z,56.70
2022-08-11T09:34:10.016Z,56.10
2022-08-11T09:36:59.755Z,55.80
2022-08-11T09:39:48.903Z,55.70
2022-08-11T09:42:23.095Z,55.50
2022-08-11T09:44:53.848Z,55.40
2022-08-11T09:47:27.683Z,55.30
2022-08-11T09:50:01.315Z,55.30
2022-08-11T09:52:35.658Z,55.00
2022-08-11T09:55:11.785Z,54.50
2022-08-11T09:58:05.063Z,54.20
2022-08-11T10:00:37.204Z,53.60
2022-08-11T10:03:12.569Z,53.50
2022-08-11T10:06:07.859Z,53.40
2022-08-11T10:08:41.583Z,52.90
2022-08-11T10:11:14.975Z,52.30
2022-08-11T10:14:33.623Z,51.80
2022-08-11T10:16:53.465Z,51.90
2022-08-11T10:19:24.023Z,52.20
2022-08-11T10:22:09.268Z,51.30
2022-08-11T10:24:56.408Z,51.10
2022-08-11T10:27:39.231Z,51.10
2022-08-11T10:30:32.147Z,50.70
2022-08-11T10:33:36.975Z,50.80
2022-08-11T10:36:15.997Z,51.20
2022-08-11T10:38:46.781Z,50.70
2022-08-11T10:41:33.030Z,50.60
2022-08-11T10:44:04.025Z,50.40
2022-08-11T10:46:50.423Z,50.60
2022-08-11T10:49:21.174Z,50.00
2022-08-11T10:52:08.769Z,49.30
2022-08-11T10:54:56.000Z,49.20
2022-08-11T10:57:42.691Z,49.30
2022-08-11T11:00:31.095Z,49.30
2022-08-11T11:03:21.892Z,49.30
2022-08-11T11:06:27.362Z,49.00
2022-08-11T11:08:54.039Z,49.10
2022-08-11T11:11:47.945Z,48.60
2022-08-11T11:14:46.198Z,48.30
2022-08-11T11:17:48.002Z,47.70
2022-08-11T11:20:35.762Z,47.40
2022-08-11T11:23:12.673Z,47.10
2022-08-11T11:26:14.578Z,47.10
2022-08-11T11:29:34.212Z,45.30
2022-08-11T11:32:27.847Z,46.10
2022-08-11T11:35:18.288Z,45.50
2022-08-11T11:38:04.555Z,45.50
2022-08-11T11:40:35.144Z,46.20
2022-08-11T11:43:05.530Z,46.00
2022-08-11T11:45:33.885Z,45.90
2022-08-11T11:48:03.496Z,45.80
2022-08-11T11:50:35.460Z,45.60
2022-08-11T11:53:08.038Z,45.20
2022-08-11T11:55:37.347Z,44.50
2022-08-11T11:58:26.067Z,44.50
2022-08-11T12:01:13.086Z,44.50
2022-08-11T12:03:42.970Z,44.30
2022-08-11T12:06:14.064Z,43.90
2022-08-11T12:08:44.802Z,43.70
2022-08-11T12:11:32.082Z,44.00
2022-08-11T12:14:10.689Z,43.60
2022-08-11T12:16:43.571Z,43.70
2022-08-11T12:19:16.469Z,43.10
2022-08-11T12:22:00.890Z,43.10
2022-08-11T12:24:48.406Z,43.30
2022-08-11T12:27:24.998Z,43.30
2022-08-11T12:29:59.896Z,43.30
2022-08-11T12:32:31.967Z,43.10
2022-08-11T12:35:01.464Z,43.00
2022-08-11T12:37:36.290Z,42.30
2022-08-11T12:40:50.140Z,42.20
2022-08-11T12:43:38.759Z,42.30
2022-08-11T12:46:19.199Z,42.70
2022-08-11T12:49:11.338Z,42.30
2022-08-11T12:52:12.292Z,42.30
2022-08-11T12:54:59.614Z,42.40
2022-08-11T12:57:51.193Z,42.30
2022-08-11T13:00:38.506Z,42.10
2022-08-11T13:03:29.086Z,41.90
2022-08-11T13:06:00.615Z,41.60
2022-08-11T13:08:32.239Z,41.80
2022-08-11T13:11:22.748Z,41.80
2022-08-11T13:13:57.772Z,41.40
2022-08-11T13:16:31.559Z,40.00
2022-08-11T13:19:02.510Z,40.50
2022-08-11T13:21:33.206Z,40.90
2022-08-11T13:24:03.650Z,41.00
2022-08-11T13:26:46.657Z,41.20
2022-08-11T13:29:26.490Z,41.00
2022-08-11T13:31:59.658Z,40.60
2022-08-11T13:34:32.269Z,40.30
2022-08-11T13:37:04.178Z,40.50
2022-08-11T13:39:35.512Z,40.70
2022-08-11T13:42:06.644Z,40.70
2022-08-11T13:44:39.297Z,40.70
2022-08-11T13:47:14.174Z,40.10
2022-08-11T13:49:45.799Z,39.90
2022-08-11T13:52:17.393Z,40.10
2022-08-11T13:54:53.147Z,40.00
2022-08-11T13:58:08.382Z,40.00
2022-08-11T14:00:24.977Z,40.10
2022-08-11T14:02:58.843Z,39.80
2022-08-11T14:05:34.997Z,39.80
2022-08-11T14:08:32.486Z,39.80
2022-08-11T14:12:21.720Z,40.00
2022-08-11T14:14:16.594Z,40.10
2022-08-11T14:16:48.001Z,40.10
2022-08-11T14:19:18.487Z,40.10
2022-08-11T14:22:10.356Z,39.70
2022-08-11T14:24:41.921Z,39.60
2022-08-11T14:28:32.065Z,39.60
2022-08-11T14:30:01.620Z,39.70
2022-08-11T14:32:30.082Z,39.70
2022-08-11T14:34:59.455Z,39.20
2022-08-11T14:37:30.191Z,39.00
2022-08-11T14:40:22.127Z,39.20
2022-08-11T14:43:08.511Z,39.00
2022-08-11T14:45:58.388Z,39.10
2022-08-11T14:48:28.395Z,39.00
2022-08-11T14:50:57.625Z,39.00
2022-08-11T14:53:27.388Z,39.00
2022-08-11T14:56:14.081Z,38.90
2022-08-11T14:58:44.697Z,38.90
2022-08-11T15:01:27.706Z,38.80
2022-08-11T15:04:04.393Z,38.90
2022-08-11T15:06:48.276Z,39.10
2022-08-11T15:09:19.507Z,39.10
2022-08-11T15:12:05.723Z,39.10
2022-08-11T15:15:11.396Z,39.00
2022-08-11T15:17:43.193Z,39.10
2022-08-11T15:20:35.274Z,39.00
2022-08-11T15:23:22.207Z,39.10
2022-08-11T15:25:57.206Z,39.20
2022-08-11T15:28:46.779Z,39.30
2022-08-11T15:31:35.769Z,39.30
2022-08-11T15:34:26.171Z,39.00
2022-08-11T15:37:20.779Z,38.60
2022-08-11T15:40:30.066Z,38.70
2022-08-11T15:43:28.987Z,38.90
2022-08-11T15:46:02.272Z,39.00
2022-08-11T15:48:45.207Z,39.00
2022-08-11T15:51:25.096Z,38.70
2022-08-11T15:53:58.428Z,38.90
2022-08-11T15:56:29.012Z,38.90
2022-08-11T15:59:41.619Z,38.80
2022-08-11T16:02:31.878Z,38.80
2022-08-11T16:05:04.227Z,38.80
2022-08-11T16:07:40.678Z,38.90
2022-08-11T16:10:19.025Z,38.80
2022-08-11T16:13:22.422Z,38.60
2022-08-11T16:16:13.697Z,38.60
2022-08-11T16:18:51.882Z,38.80
2022-08-11T16:21:26.064Z,38.60
2022-08-11T16:24:07.978Z,38.40
2022-08-11T16:27:09.390Z,38.20
2022-08-11T16:29:33.051Z,38.20
2022-08-11T16:32:20.586Z,38.30
2022-08-11T16:35:14.116Z,38.10
2022-08-11T16:38:02.859Z,37.90
2022-08-11T16:40:32.132Z,37.90
2022-08-11T16:43:20.977Z,37.80
2022-08-11T16:46:08.246Z,37.80
2022-08-11T16:48:41.201Z,37.70
2022-08-11T16:51:13.743Z,37.60
2022-08-11T16:53:59.821Z,37.50
2022-08-11T16:56:44.367Z,37.70
2022-08-11T16:59:19.567Z,37.70
2022-08-11T17:01:53.277Z,37.60
2022-08-11T17:04:59.904Z,37.70
2022-08-11T17:07:51.500Z,37.00
2022-08-11T17:10:53.433Z,37.40
2022-08-11T17:13:32.065Z,37.40
2022-08-11T17:16:08.531Z,37.40
2022-08-11T17:18:49.763Z,37.30
2022-08-11T17:21:23.598Z,37.30
2022-08-11T17:23:55.984Z,37.40
2022-08-11T17:26:47.388Z,37.40
2022-08-11T17:29:16.173Z,37.40
2022-08-11T17:32:03.597Z,37.60
2022-08-11T17:34:49.399Z,37.60
2022-08-11T17:37:20.143Z,37.70
2022-08-11T17:39:49.605Z,37.80
2022-08-11T17:42:36.423Z,37.90
2022-08-11T17:45:20.825Z,38.10
2022-08-11T17:48:07.497Z,38.30
2022-08-11T17:50:37.771Z,38.50
2022-08-11T17:53:25.937Z,38.50
2022-08-11T17:56:23.599Z,38.70
2022-08-11T17:59:12.812Z,38.80
2022-08-11T18:01:44.529Z,38.90
2022-08-11T18:04:14.619Z,39.10
2022-08-11T18:06:44.531Z,39.10
2022-08-11T18:09:38.282Z,39.20
2022-08-11T18:12:26.551Z,39.10
2022-08-11T18:15:15.584Z,39.30
2022-08-11T18:18:02.586Z,39.50
2022-08-11T18:20:49.702Z,39.70
2022-08-11T18:23:47.462Z,39.90
2022-08-11T18:26:41.816Z,40.10
2022-08-11T18:29:29.586Z,40.30
2022-08-11T18:32:20.720Z,40.40
2022-08-11T18:35:13.212Z,40.50
2022-08-11T18:38:07.711Z,40.80
2022-08-11T18:40:55.510Z,41.00
2022-08-11T18:43:50.730Z,41.10
2022-08-11T18:46:40.308Z,41.20
2022-08-11T18:50:02.592Z,41.30
2022-08-11T18:52:40.411Z,41.60
2022-08-11T18:55:33.905Z,41.70
2022-08-11T18:58:25.880Z,41.80
2022-08-11T19:01:18.538Z,41.90
2022-08-11T19:04:10.454Z,42.10
2022-08-11T19:07:01.577Z,42.20
2022-08-11T19:09:49.813Z,42.30
2022-08-11T19:12:38.485Z,42.30
2022-08-11T19:15:26.511Z,42.50
2022-08-11T19:18:16.542Z,42.60
2022-08-11T19:21:03.992Z,42.70
2022-08-11T19:23:57.333Z,42.80
2022-08-11T19:26:43.945Z,42.80
2022-08-11T19:30:07.667Z,43.00
2022-08-11T19:32:40.228Z,43.10
2022-08-11T19:35:29.586Z,43.30
2022-08-11T19:38:18.730Z,43.50
2022-08-11T19:41:05.747Z,43.60
2022-08-11T19:43:53.142Z,43.70
2022-08-11T19:46:42.145Z,44.00
2022-08-11T19:49:30.019Z,43.90
2022-08-11T19:52:18.146Z,44.00
2022-08-11T19:55:06.047Z,44.10
2022-08-11T19:57:55.772Z,44.20
2022-08-11T20:00:42.755Z,44.20
2022-08-11T20:03:31.301Z,44.20
2022-08-11T20:06:23.827Z,44.20
2022-08-11T20:09:17.521Z,44.30
2022-08-11T20:12:08.512Z,44.40
2022-08-11T20:14:59.165Z,44.40
2022-08-11T20:17:50.498Z,44.50
2022-08-11T20:20:38.843Z,44.50
2022-08-11T20:23:28.891Z,44.60
2022-08-11T20:26:30.640Z,44.70
2022-08-11T20:29:19.343Z,44.80
2022-08-11T20:32:06.667Z,44.90
2022-08-11T20:34:58.234Z,45.00
2022-08-11T20:37:50.215Z,45.10
2022-08-11T20:40:41.160Z,45.10
2022-08-11T20:44:05.676Z,45.10
2022-08-11T20:46:43.908Z,45.20
2022-08-11T20:49:40.904Z,45.40
2022-08-11T20:52:38.675Z,45.50
2022-08-11T20:55:51.229Z,45.50
2022-08-11T21:01:44.557Z,45.60
2022-08-11T21:04:31.241Z,45.60
2022-08-11T21:07:28.481Z,45.70
2022-08-11T21:10:24.005Z,45.80
2022-08-11T21:13:25.545Z,45.90
2022-08-11T21:16:26.011Z,45.90
2022-08-11T21:19:59.688Z,45.90
2022-08-11T21:22:33.571Z,45.90
2022-08-11T21:25:22.082Z,46.00
2022-08-11T21:28:10.557Z,46.00
2022-08-11T21:30:58.377Z,46.00
2022-08-11T21:33:49.763Z,46.00
2022-08-11T21:36:38.477Z,46.10
2022-08-11T21:39:27.848Z,46.10
2022-08-11T21:42:15.995Z,46.10
2022-08-11T21:45:03.462Z,46.10
2022-08-11T21:48:01.218Z,46.10
2022-08-11T21:50:48.986Z,46.30
2022-08-11T21:53:35.408Z,46.10
2022-08-11T21:56:27.380Z,46.30
2022-08-11T21:59:15.863Z,46.20
2022-08-11T22:02:02.911Z,46.30
2022-08-11T22:04:54.417Z,46.40
2022-08-11T22:07:42.509Z,46.40
2022-08-11T22:10:42.284Z,46.40
2022-08-11T22:13:30.636Z,46.40
2022-08-11T22:16:17.688Z,46.40
2022-08-11T22:19:04.940Z,46.40
2022-08-11T22:22:01.383Z,46.40
2022-08-11T22:24:53.030Z,46.40
2022-08-11T22:27:39.837Z,46.60
2022-08-11T22:30:28.196Z,46.60
2022-08-11T22:33:24.488Z,46.60
2022-08-11T22:36:14.712Z,46.80
2022-08-11T22:39:03.739Z,46.90
2022-08-11T22:41:50.974Z,46.90
2022-08-11T22:44:37.118Z,46.90
2022-08-11T22:47:27.433Z,46.80
2022-08-11T22:50:27.243Z,47.00
2022-08-11T22:53:15.073Z,47.10
2022-08-11T22:56:00.643Z,47.20
2022-08-11T22:58:49.994Z,47.10
2022-08-11T23:01:37.650Z,47.20
2022-08-11T23:04:25.528Z,47.40
2022-08-11T23:07:13.025Z,47.40
2022-08-11T23:10:19.206Z,47.60
2022-08-11T23:13:05.187Z,47.50
2022-08-11T23:15:53.737Z,47.60
2022-08-11T23:18:40.833Z,47.80
2022-08-11T23:21:27.344Z,48.00
2022-08-11T23:24:13.576Z,47.90
2022-08-11T23:27:00.638Z,48.10
2022-08-11T23:29:49.923Z,48.10
2022-08-11T23:32:37.511Z,48.30
2022-08-11T23:35:38.789Z,48.40
2022-08-11T23:38:26.912Z,48.50
2022-08-11T23:41:12.541Z,48.50
2022-08-11T23:43:58.546Z,48.40
2022-08-11T23:46:45.713Z,48.70
2022-08-11T23:49:34.635Z,48.70
2022-08-11T23:52:22.580Z,48.80
2022-08-11T23:55:09.133Z,49.50
2022-08-11T23:57:55.392Z,49.10
